Time;durP1;ratioP1;P1;durP2;ratioP2;P2;SDS_P1;SDS_P2;PMS_P1;PMS_P2;Temp;Humidity;BMP_temperature;BMP_pressure;BME280_temperature;BME280_humidity;BME280_pressure;Samples;Min_cycle;Max_cycle;Signal;HPM_P1;HPM_P2
2022/05/03 00:01:33;;;;;;;24.58;11.50;;;;;;;9.53;84.45;98508.97;5066882;28;20171;-90
2022/05/03 00:04:06;;;;;;;23.52;11.95;;;;;;;9.52;85.39;98520.53;5070281;28;20053;-90
2022/05/03 00:06:46;;;;;;;21.85;11.25;;;;;;;9.42;85.10;98516.38;5069629;28;20037;-90
2022/05/03 00:09:22;;;;;;;19.83;11.07;;;;;;;9.33;85.68;98511.31;5069395;28;20044;-90
2022/05/03 00:11:53;;;;;;;24.55;11.32;;;;;;;9.27;87.24;98517.63;5069479;28;20487;-90
2022/05/03 00:14:26;;;;;;;25.70;11.40;;;;;;;9.27;87.85;98514.13;5069800;28;20033;-89
2022/05/03 00:16:53;;;;;;;23.98;11.70;;;;;;;9.21;87.90;98513.34;5068755;28;20371;-89
2022/05/03 00:19:18;;;;;;;24.52;13.32;;;;;;;9.08;88.77;98492.47;5069058;28;20067;-90
2022/05/03 00:21:45;;;;;;;29.27;13.27;;;;;;;9.20;89.41;98505.44;5071350;28;20478;-89
2022/05/03 00:24:13;;;;;;;28.60;13.80;;;;;;;9.19;89.29;98503.69;5070591;28;20074;-91
2022/05/03 00:26:39;;;;;;;27.73;12.95;;;;;;;9.13;90.07;98512.69;5070323;28;20498;-90
2022/05/03 00:29:05;;;;;;;26.73;12.45;;;;;;;9.08;89.81;98506.59;5070447;28;20091;-91
2022/05/03 00:31:31;;;;;;;32.80;14.60;;;;;;;9.05;89.90;98506.69;5070528;28;20083;-89
2022/05/03 00:33:58;;;;;;;27.88;13.15;;;;;;;9.04;90.55;98511.13;5069091;28;20095;-90
2022/05/03 00:36:24;;;;;;;28.25;13.13;;;;;;;9.11;91.42;98510.97;5070980;28;20123;-89
2022/05/03 00:38:51;;;;;;;25.45;13.15;;;;;;;9.11;90.85;98506.56;5070669;28;20174;-89
2022/05/03 00:41:36;;;;;;;26.98;13.15;;;;;;;9.12;90.84;98507.41;5070730;28;20044;-90
2022/05/03 00:44:55;;;;;;;28.77;13.27;;;;;;;9.03;90.84;98488.16;5070889;28;20047;-91
2022/05/03 00:47:04;;;;;;;30.00;13.88;;;;;;;8.80;93.06;98477.25;5069687;28;20091;-89
2022/05/03 00:49:37;;;;;;;28.42;13.90;;;;;;;8.91;93.92;98509.66;5069531;28;20040;-90
2022/05/03 00:52:06;;;;;;;28.30;13.23;;;;;;;8.75;94.67;98481.81;5071202;28;20036;-89
2022/05/03 00:54:45;;;;;;;28.23;12.48;;;;;;;8.81;94.48;98484.31;5070641;28;20453;-91
2022/05/03 00:57:35;;;;;;;;;;;;;;;8.84;94.55;98498.34;5070270;28;20041;-89
2022/05/03 01:00:09;;;;;;;23.67;12.27;;;;;;;8.79;95.24;98491.44;5069895;28;19932;-89
2022/05/03 01:02:54;;;;;;;23.85;12.32;;;;;;;8.75;95.94;98487.97;5071015;28;20392;-90
2022/05/03 01:05:26;;;;;;;23.13;12.77;;;;;;;8.71;94.89;98488.94;5070486;28;20532;-90
2022/05/03 01:08:03;;;;;;;28.95;13.35;;;;;;;8.68;95.97;98488.19;5069485;28;20402;-90
2022/05/03 01:10:36;;;;;;;21.67;11.10;;;;;;;8.60;95.35;98494.50;5069059;28;20064;-89
2022/05/03 01:13:09;;;;;;;22.15;12.63;;;;;;;8.49;96.09;98479.78;5069044;28;20394;-90
2022/05/03 01:15:38;;;;;;;22.77;12.35;;;;;;;8.38;96.44;98464.09;5070466;28;20036;-89
2022/05/03 01:18:26;;;;;;;23.17;11.68;;;;;;;8.51;95.62;98500.03;5069984;28;20044;-89
2022/05/03 01:21:05;;;;;;;23.02;11.77;;;;;;;8.50;96.64;98490.34;5067119;28;20059;-90
2022/05/03 01:24:01;;;;;;;22.52;11.73;;;;;;;8.42;96.08;98474.63;5071778;28;20186;-89
2022/05/03 01:27:06;;;;;;;17.85;10.93;;;;;;;8.59;95.87;98499.88;5073891;28;20040;-89
2022/05/03 01:29:35;;;;;;;17.25;9.90;;;;;;;8.59;95.26;98490.13;5073288;28;20041;-90
2022/05/03 01:32:02;;;;;;;19.98;10.57;;;;;;;8.64;94.25;98490.00;5073529;28;20114;-90
2022/05/03 01:34:30;;;;;;;20.50;11.43;;;;;;;8.55;94.25;98499.06;5073305;28;20055;-90
2022/05/03 01:37:19;;;;;;;19.45;10.98;;;;;;;8.56;94.94;98506.09;5073182;28;20053;-89
2022/05/03 01:40:04;;;;;;;23.52;13.40;;;;;;;8.27;95.42;98484.66;5073024;28;20696;-87
2022/05/03 01:42:45;;;;;;;20.42;11.18;;;;;;;8.33;95.72;98482.75;5074702;28;20064;-90
2022/05/03 01:45:12;;;;;;;21.05;11.38;;;;;;;8.40;96.20;98492.31;5073377;28;20043;-90
2022/05/03 01:47:55;;;;;;;18.30;10.85;;;;;;;8.44;95.74;98506.38;5073314;28;20036;-91
2022/05/03 01:50:30;;;;;;;18.30;10.65;;;;;;;8.40;95.31;98488.78;5072781;28;20094;-89
2022/05/03 01:53:15;;;;;;;19.30;10.30;;;;;;;8.54;94.66;98509.69;5073603;28;20124;-91
2022/05/03 01:56:07;;;;;;;19.08;10.73;;;;;;;8.46;94.80;98501.03;5072532;28;20528;-89
2022/05/03 01:58:40;;;;;;;16.02;10.35;;;;;;;8.33;95.01;98481.88;5072755;28;20093;-89
2022/05/03 02:01:16;;;;;;;17.08;11.05;;;;;;;8.40;94.78;98502.03;5072402;28;20089;-90
2022/05/03 02:03:48;;;;;;;15.20;10.15;;;;;;;8.33;95.61;98501.28;5071614;28;20063;-89
2022/05/03 02:06:15;;;;;;;17.30;10.95;;;;;;;8.27;96.15;98501.44;5071449;28;20036;-90
2022/05/03 02:08:57;;;;;;;24.50;10.77;;;;;;;8.21;95.85;98502.41;5072892;28;20044;-90
2022/05/03 02:11:37;;;;;;;16.45;9.82;;;;;;;8.00;96.65;98474.66;5072841;28;20039;-89
2022/05/03 02:17:13;;;;;;;18.10;10.48;;;;;;;8.20;96.29;98499.81;5088091;27;20359;-91
2022/05/03 02:20:08;;;;;;;17.10;9.50;;;;;;;8.16;96.33;98499.00;5088149;28;20045;-91
2022/05/03 02:22:55;;;;;;;21.27;10.95;;;;;;;8.20;97.18;98497.19;5085589;28;20059;-90
2022/05/03 02:25:32;;;;;;;19.70;11.18;;;;;;;8.08;97.27;98495.66;5086608;28;20045;-92
2022/05/03 02:28:03;;;;;;;19.35;11.50;;;;;;;8.07;97.13;98498.31;5087591;28;20505;-91
2022/05/03 02:30:33;;;;;;;17.98;11.10;;;;;;;7.97;98.27;98481.78;5087906;28;20040;-91
2022/05/03 02:33:04;;;;;;;17.55;11.18;;;;;;;8.10;97.97;98503.56;5089048;28;20390;-90
2022/05/03 02:35:33;;;;;;;20.00;11.05;;;;;;;7.95;98.31;98478.28;5088199;28;20032;-90
2022/05/03 02:38:03;;;;;;;19.45;11.10;;;;;;;7.95;99.24;98481.78;5088314;28;20070;-90
2022/05/03 02:40:30;;;;;;;18.10;10.73;;;;;;;8.10;97.95;98492.97;5087841;28;20048;-91
2022/05/03 02:42:57;;;;;;;19.65;10.95;;;;;;;8.06;98.17;98493.94;5087986;28;20054;-90
2022/05/03 02:45:23;;;;;;;20.17;11.63;;;;;;;7.87;98.00;98478.47;5088316;28;20106;-91
2022/05/03 02:47:55;;;;;;;18.45;11.10;;;;;;;7.91;98.62;98501.28;5087910;28;20052;-90
2022/05/03 02:50:30;;;;;;;21.52;12.30;;;;;;;7.85;99.56;98492.59;5087521;28;20066;-90
2022/05/03 02:53:02;;;;;;;18.77;11.10;;;;;;;7.89;99.01;98508.41;5087026;28;20040;-90
2022/05/03 02:55:43;;;;;;;19.10;11.55;;;;;;;7.84;99.27;98504.97;5087742;28;20549;-89
2022/05/03 02:58:19;;;;;;;19.73;11.48;;;;;;;7.67;100.00;98488.56;5087844;28;20044;-88
2022/05/03 03:04:05;;;;;;;17.83;10.35;;;;;;;7.88;99.53;98509.31;5134609;27;20375;-89
2022/05/03 03:06:33;;;;;;;19.05;11.52;;;;;;;7.79;99.90;98488.34;5132444;27;20051;-89
2022/05/03 03:09:00;;;;;;;18.88;11.55;;;;;;;7.81;100.00;98497.97;5133928;27;20035;-90
2022/05/03 03:11:52;;;;;;;18.30;10.80;;;;;;;7.79;100.00;98485.69;5135200;27;20047;-89
2022/05/03 03:14:25;;;;;;;20.00;12.05;;;;;;;7.80;100.00;98495.34;5132965;27;20036;-89
2022/05/03 03:16:54;;;;;;;17.58;11.07;;;;;;;7.80;100.00;98482.13;5136630;27;20035;-91
2022/05/03 03:19:52;;;;;;;19.15;11.10;;;;;;;7.82;100.00;98486.47;5136647;27;20036;-90
2022/05/03 03:22:20;;;;;;;15.23;10.18;;;;;;;7.75;99.87;98476.06;5132016;27;20063;-89
2022/05/03 03:24:48;;;;;;;17.98;11.55;;;;;;;7.80;99.46;98495.34;5131853;27;20465;-90
2022/05/03 03:27:14;;;;;;;18.05;10.50;;;;;;;7.79;100.00;98483.03;5134349;27;20092;-91
2022/05/03 03:29:41;;;;;;;17.23;10.57;;;;;;;7.82;99.75;98490.91;5136092;27;20177;-90
2022/05/03 03:32:08;;;;;;;14.65;9.70;;;;;;;7.84;98.73;98498.81;5130274;27;20036;-92
2022/05/03 03:34:35;;;;;;;18.05;11.05;;;;;;;7.72;98.40;98499.91;5136708;27;20164;-90
2022/05/03 03:37:07;;;;;;;15.43;10.20;;;;;;;7.65;100.00;98498.31;5135519;27;20127;-92
2022/05/03 03:39:34;;;;;;;17.20;10.00;;;;;;;7.59;99.66;98505.47;5132314;27;20067;-88
2022/05/03 03:42:01;;;;;;;15.82;10.18;;;;;;;7.58;100.00;98501.06;5137652;27;20752;-92
2022/05/03 03:44:28;;;;;;;18.15;11.40;;;;;;;7.56;100.00;98494.94;5137131;27;20154;-90
2022/05/03 03:46:55;;;;;;;19.38;10.70;;;;;;;7.55;100.00;98498.50;5130964;27;20035;-91
2022/05/03 03:49:21;;;;;;;17.38;9.98;;;;;;;7.38;99.83;98482.94;5130134;27;20104;-91
2022/05/03 03:51:50;;;;;;;17.30;10.40;;;;;;;7.49;100.00;98506.53;5134694;27;20043;-91
2022/05/03 03:54:19;;;;;;;20.77;10.57;;;;;;;7.47;100.00;98497.75;5129314;27;20123;-91
2022/05/03 03:56:45;;;;;;;19.27;11.38;;;;;;;7.51;100.00;98498.59;5136299;27;20553;-89
2022/05/03 03:59:14;;;;;;;20.52;11.60;;;;;;;7.45;100.00;98494.28;5137479;27;20123;-90
2022/05/03 04:01:40;;;;;;;23.23;12.20;;;;;;;7.46;100.00;98492.50;5133303;27;20157;-91
2022/05/03 04:04:08;;;;;;;18.05;11.35;;;;;;;7.37;100.00;98478.56;5133278;27;20041;-90
2022/05/03 04:06:34;;;;;;;17.73;10.43;;;;;;;7.55;100.00;98516.16;5132275;27;20039;-91
2022/05/03 04:08:59;;;;;;;22.65;11.38;;;;;;;7.67;100.00;98515.91;5135571;27;20511;-90
2022/05/03 04:11:27;;;;;;;16.33;10.40;;;;;;;7.57;100.00;98504.63;5130351;27;20565;-91
2022/05/03 04:13:53;;;;;;;17.60;10.43;;;;;;;7.60;100.00;98511.63;5122906;28;20114;-90
2022/05/03 04:16:19;;;;;;;17.30;10.20;;;;;;;7.65;99.58;98517.69;5116784;27;20812;-90
2022/05/03 04:18:45;;;;;;;16.27;9.93;;;;;;;7.55;98.95;98505.56;5120010;27;20039;-90
2022/05/03 04:21:16;;;;;;;17.50;10.43;;;;;;;7.51;99.12;98511.81;5121386;27;20043;-90
2022/05/03 04:23:42;;;;;;;17.00;10.30;;;;;;;7.51;99.66;98520.63;5119747;27;20069;-91
2022/05/03 04:26:09;;;;;;;22.88;11.00;;;;;;;7.44;99.61;98512.81;5120926;27;20074;-90
2022/05/03 04:28:36;;;;;;;20.27;11.48;;;;;;;7.36;100.00;98511.19;5117639;27;20097;-90
2022/05/03 04:31:02;;;;;;;19.08;11.68;;;;;;;7.43;100.00;98519.88;5120234;27;20123;-90
2022/05/03 04:33:28;;;;;;;20.23;11.35;;;;;;;7.45;100.00;98523.38;5119938;27;20126;-90
2022/05/03 04:35:53;;;;;;;22.83;11.88;;;;;;;7.48;100.00;98515.41;5116857;27;20036;-88
2022/05/03 04:38:19;;;;;;;23.52;12.80;;;;;;;7.52;100.00;98521.50;5119133;27;20035;-88
2022/05/03 04:40:45;;;;;;;22.98;12.85;;;;;;;7.44;100.00;98508.41;5120705;27;20035;-89
2022/05/03 04:43:11;;;;;;;21.65;13.35;;;;;;;7.58;100.00;98524.88;5115375;27;20131;-88
2022/05/03 04:45:38;;;;;;;22.77;12.98;;;;;;;7.51;100.00;98509.19;5118366;27;20046;-90
2022/05/03 04:48:05;;;;;;;23.42;13.80;;;;;;;7.56;100.00;98508.16;5117524;27;20040;-90
2022/05/03 04:50:31;;;;;;;20.58;11.93;;;;;;;7.65;100.00;98516.84;5115346;27;20144;-89
2022/05/03 04:52:57;;;;;;;23.73;13.77;;;;;;;7.63;100.00;98513.34;5117924;27;20525;-89
2022/05/03 04:55:23;;;;;;;19.83;12.68;;;;;;;7.73;100.00;98520.22;5120863;27;20036;-89
2022/05/03 04:57:49;;;;;;;22.58;13.25;;;;;;;7.96;100.00;98527.72;5115157;27;20104;-89
2022/05/03 05:00:15;;;;;;;19.70;12.60;;;;;;;8.02;100.00;98517.84;5117064;27;20071;-90
2022/05/03 05:02:43;;;;;;;21.35;12.68;;;;;;;8.16;99.97;98529.94;5117917;27;20050;-88
2022/05/03 05:05:09;;;;;;;21.77;12.57;;;;;;;8.26;100.00;98526.16;5114942;27;20074;-90
2022/05/03 05:07:34;;;;;;;21.52;12.18;;;;;;;8.36;99.68;98516.25;5115898;27;20096;-88
2022/05/03 05:12:57;;;;;;;18.70;11.90;;;;;;;8.66;97.42;98514.72;5088646;27;20394;-90
2022/05/03 05:15:23;;;;;;;21.20;11.93;;;;;;;8.83;96.75;98516.97;5087979;28;20063;-90
2022/05/03 05:17:49;;;;;;;18.83;11.50;;;;;;;9.14;94.97;98521.50;5088384;28;20040;-89
2022/05/03 05:20:15;;;;;;;18.85;10.85;;;;;;;9.42;92.61;98516.38;5087156;28;20124;-91
2022/05/03 05:22:42;;;;;;;16.70;10.98;;;;;;;9.72;90.86;98522.63;5087969;28;20486;-89
2022/05/03 05:25:09;;;;;;;15.60;9.98;;;;;;;9.85;88.53;98520.50;5087431;28;20040;-90
2022/05/03 05:27:34;;;;;;;17.83;11.27;;;;;;;9.85;88.77;98525.81;5087946;28;20037;-90
2022/05/03 05:30:03;;;;;;;14.30;9.75;;;;;;;10.08;87.39;98530.44;5086700;28;20094;-88
2022/05/03 05:32:32;;;;;;;14.60;10.20;;;;;;;10.39;87.18;98537.59;5082272;28;20037;-89
2022/05/03 05:34:58;;;;;;;16.67;9.88;;;;;;;10.69;85.70;98530.41;5085826;28;20344;-92
2022/05/03 05:37:24;;;;;;;16.58;9.73;;;;;;;10.79;82.80;98507.94;5087307;28;20127;-90
2022/05/03 05:39:53;;;;;;;14.98;9.45;;;;;;;11.04;81.20;98496.53;5087464;28;20139;-92
2022/05/03 05:42:18;;;;;;;18.27;10.68;;;;;;;11.38;79.71;98509.53;5088471;28;20042;-92
2022/05/03 05:44:44;;;;;;;14.90;9.32;;;;;;;11.63;78.50;98522.88;5088241;28;20032;-91
2022/05/03 05:47:11;;;;;;;14.93;10.23;;;;;;;11.63;77.27;98504.22;5088042;28;20044;-91
2022/05/03 05:49:37;;;;;;;23.08;10.40;;;;;;;11.66;77.84;98537.88;5088358;28;20047;-91
2022/05/03 05:54:56;;;;;;;24.75;13.65;;;;;;;11.79;77.48;98538.31;5087299;27;20736;-90
2022/05/03 05:57:22;;;;;;;15.05;10.15;;;;;;;11.83;77.40;98543.47;5084421;28;20051;-91
2022/05/03 05:59:48;;;;;;;17.17;10.75;;;;;;;11.84;76.93;98547.00;5087988;28;20123;-90
2022/05/03 06:02:14;;;;;;;19.23;11.77;;;;;;;11.94;77.11;98544.91;5087008;28;20090;-90
2022/05/03 06:04:40;;;;;;;23.38;13.07;;;;;;;12.07;75.77;98549.72;5086352;28;20063;-91
2022/05/03 06:07:05;;;;;;;21.15;11.40;;;;;;;11.95;75.87;98531.53;5085926;28;20071;-92
2022/05/03 06:09:33;;;;;;;20.35;11.82;;;;;;;12.10;76.45;98546.06;5088118;28;20128;-91
2022/05/03 06:12:00;;;;;;;17.58;10.70;;;;;;;12.11;75.69;98539.84;5086713;28;20089;-90
2022/05/03 06:14:26;;;;;;;20.30;12.80;;;;;;;12.19;74.79;98528.88;5086913;28;20388;-90
2022/05/03 06:16:53;;;;;;;18.73;11.70;;;;;;;12.40;74.20;98551.19;5086702;28;20102;-92
2022/05/03 06:19:19;;;;;;;19.48;12.80;;;;;;;12.35;74.32;98562.03;5087039;28;20036;-91
2022/05/03 06:21:45;;;;;;;24.00;12.60;;;;;;;12.47;73.96;98556.25;5086409;28;20127;-91
2022/05/03 06:24:12;;;;;;;27.08;13.13;;;;;;;12.55;73.75;98537.28;5087708;28;20123;-90
2022/05/03 06:26:38;;;;;;;22.23;13.05;;;;;;;12.67;72.72;98530.59;5086019;28;20044;-90
2022/05/03 06:29:08;;;;;;;18.33;12.18;;;;;;;12.87;71.78;98541.34;5085982;28;20073;-90
2022/05/03 06:31:35;;;;;;;24.60;13.40;;;;;;;13.00;71.55;98538.19;5084983;28;20038;-91
2022/05/03 06:34:01;;;;;;;20.67;12.25;;;;;;;13.10;71.47;98539.56;5087355;28;20039;-90
2022/05/03 06:36:27;;;;;;;25.25;14.15;;;;;;;13.26;71.26;98539.78;5087108;28;20044;-90
2022/05/03 06:38:53;;;;;;;27.85;13.50;;;;;;;13.43;70.59;98545.31;5087572;28;20428;-91
2022/05/03 06:41:18;;;;;;;23.08;12.38;;;;;;;13.63;70.22;98544.47;5086612;28;20044;-93
2022/05/03 06:43:44;;;;;;;20.23;12.55;;;;;;;13.84;68.37;98553.38;5086291;28;20502;-92
2022/05/03 06:46:11;;;;;;;19.10;11.73;;;;;;;13.99;67.44;98557.16;5086779;28;20043;-91
2022/05/03 06:48:37;;;;;;;17.00;11.40;;;;;;;13.98;67.84;98545.59;5087213;28;20123;-93
2022/05/03 06:51:05;;;;;;;21.88;12.27;;;;;;;14.16;66.98;98561.75;5086802;28;20556;-91
2022/05/03 06:53:30;;;;;;;20.20;12.98;;;;;;;14.24;66.78;98561.41;5085999;28;20041;-91
2022/05/03 06:55:56;;;;;;;19.50;12.20;;;;;;;14.22;66.75;98542.75;5086199;28;20406;-91
2022/05/03 06:58:22;;;;;;;19.80;12.38;;;;;;;14.47;66.21;98552.34;5086994;28;20036;-89
2022/05/03 07:00:48;;;;;;;20.95;12.65;;;;;;;14.62;64.94;98548.13;5086577;28;20814;-88
2022/05/03 07:03:17;;;;;;;23.60;12.32;;;;;;;14.60;65.06;98547.31;5086654;28;20070;-90
2022/05/03 07:05:42;;;;;;;19.60;12.02;;;;;;;14.77;65.08;98558.09;5076375;28;20029;-90
2022/05/03 07:08:09;;;;;;;22.50;13.02;;;;;;;14.83;64.79;98540.84;5073449;28;20776;-91
2022/05/03 07:10:35;;;;;;;22.15;12.60;;;;;;;15.03;63.83;98548.81;5073463;28;20041;-91
2022/05/03 07:13:00;;;;;;;20.10;12.43;;;;;;;15.23;62.87;98549.63;5073037;28;20440;-91
2022/05/03 07:15:27;;;;;;;21.92;13.48;;;;;;;15.37;63.17;98550.66;5073221;28;20033;-89
2022/05/03 07:23:39;;;;;;;26.48;13.55;;;;;;;15.78;62.50;98542.34;5092177;27;20396;-92
2022/05/03 07:26:05;;;;;;;25.63;14.43;;;;;;;15.93;61.72;98537.16;5095776;28;20040;-90
2022/05/03 07:28:31;;;;;;;26.42;14.13;;;;;;;15.99;61.03;98536.84;5092988;28;20032;-91
2022/05/03 07:30:56;;;;;;;29.58;15.05;;;;;;;16.11;60.89;98532.63;5092054;28;20087;-91
2022/05/03 07:33:22;;;;;;;27.83;14.82;;;;;;;16.13;60.30;98515.50;5092582;28;20040;-91
2022/05/03 07:35:48;;;;;;;25.40;15.30;;;;;;;16.38;60.32;98538.34;5087103;28;20085;-90
2022/05/03 07:38:14;;;;;;;24.92;14.80;;;;;;;16.46;60.04;98546.84;5091397;28;20137;-91
2022/05/03 07:40:41;;;;;;;25.90;14.25;;;;;;;16.51;59.27;98533.16;5095971;28;20066;-90
2022/05/03 07:43:07;;;;;;;30.90;15.63;;;;;;;16.56;59.34;98526.56;5090825;28;20037;-90
2022/05/03 07:45:33;;;;;;;32.67;15.32;;;;;;;16.65;59.68;98517.13;5090457;28;20044;-91
2022/05/03 07:47:58;;;;;;;26.23;14.93;;;;;;;16.89;59.67;98544.47;5091407;28;20569;-91
2022/05/03 07:50:24;;;;;;;26.15;15.13;;;;;;;16.96;59.39;98539.63;5093591;28;20040;-91
2022/05/03 07:52:50;;;;;;;30.85;17.73;;;;;;;16.84;58.21;98527.75;5091905;28;20063;-91
2022/05/03 07:55:16;;;;;;;30.10;16.20;;;;;;;16.84;59.19;98519.69;5092470;28;20062;-90
2022/05/03 07:57:43;;;;;;;29.05;16.80;;;;;;;17.07;59.39;98544.38;5097862;28;20059;-90
2022/05/03 08:00:10;;;;;;;29.80;17.63;;;;;;;16.80;59.92;98532.41;5091831;28;20374;-90
2022/05/03 08:02:35;;;;;;;27.75;17.58;;;;;;;16.87;59.17;98543.69;5090011;28;20028;-90
2022/05/03 08:05:02;;;;;;;30.45;16.63;;;;;;;16.81;60.83;98531.47;5092571;28;20067;-91
2022/05/03 08:07:28;;;;;;;28.42;16.88;;;;;;;17.08;60.07;98538.91;5088622;28;20042;-90
2022/05/03 08:09:54;;;;;;;26.63;17.35;;;;;;;17.14;59.20;98535.03;5091093;28;20123;-88
2022/05/03 08:12:20;;;;;;;32.40;17.45;;;;;;;17.08;59.92;98511.19;5093385;28;20050;-90
2022/05/03 08:14:47;;;;;;;29.27;17.55;;;;;;;17.44;59.62;98537.75;5093819;28;20397;-91
2022/05/03 08:17:13;;;;;;;32.83;17.27;;;;;;;17.63;58.95;98511.50;5088734;28;20497;-91
2022/05/03 08:19:39;;;;;;;34.83;17.73;;;;;;;18.01;58.87;98529.84;5091989;28;20052;-90
2022/05/03 08:22:05;;;;;;;39.40;19.15;;;;;;;17.95;58.41;98545.50;5095657;28;20062;-90
2022/05/03 08:24:31;;;;;;;35.42;19.77;;;;;;;17.77;58.91;98534.00;5093889;28;20543;-91
2022/05/03 08:26:57;;;;;;;32.17;18.90;;;;;;;18.19;58.00;98538.59;5092221;28;20036;-91
2022/05/03 08:29:23;;;;;;;33.63;18.08;;;;;;;18.28;57.03;98545.25;5096217;28;20565;-90
2022/05/03 08:31:50;;;;;;;30.80;17.52;;;;;;;18.42;56.93;98533.63;5087864;28;20039;-90
2022/05/03 08:34:16;;;;;;;30.75;16.25;;;;;;;18.68;56.73;98540.06;5081259;28;20044;-91
2022/05/03 08:42:01;;;;;;;27.27;16.55;;;;;;;18.81;55.65;98532.94;5078496;28;20123;-90
2022/05/03 08:42:21;;;;;;;32.38;17.20;;;;;;;19.21;54.72;98532.16;5134939;27;20897;-90
2022/05/03 08:44:47;;;;;;;32.85;16.63;;;;;;;19.34;53.63;98524.97;5136885;27;20043;-89
2022/05/03 08:47:16;;;;;;;32.15;18.38;;;;;;;19.39;53.24;98532.78;5131693;27;20496;-89
2022/05/03 08:49:53;;;;;;;30.63;16.35;;;;;;;19.50;53.43;98533.78;5133360;27;20047;-91
2022/05/03 08:52:21;;;;;;;25.88;16.52;;;;;;;19.60;53.00;98534.00;5133024;27;20055;-90
2022/05/03 08:54:48;;;;;;;32.10;16.10;;;;;;;19.71;52.62;98530.63;5130212;27;20032;-89
2022/05/03 08:57:14;;;;;;;28.67;15.70;;;;;;;19.83;51.27;98524.38;5132694;27;20051;-91
2022/05/03 08:59:43;;;;;;;30.73;16.10;;;;;;;19.94;52.77;98520.09;5133183;27;20056;-89
2022/05/03 09:02:10;;;;;;;27.17;14.82;;;;;;;20.05;51.68;98515.66;5131092;27;20147;-89
2022/05/03 09:04:35;;;;;;;29.27;15.35;;;;;;;20.24;51.10;98528.72;5132287;27;20496;-90
2022/05/03 09:07:16;;;;;;;28.15;15.63;;;;;;;19.96;50.57;98528.94;5130034;27;20052;-89
2022/05/03 09:09:42;;;;;;;27.65;15.63;;;;;;;20.23;51.00;98527.03;5135521;27;20043;-90
2022/05/03 09:12:21;;;;;;;19.90;12.77;;;;;;;20.11;45.92;98517.06;5128661;27;20034;-91
2022/05/03 09:14:48;;;;;;;20.58;12.77;;;;;;;19.81;47.97;98518.22;5134058;27;20036;-90
2022/05/03 09:17:15;;;;;;;23.52;13.25;;;;;;;19.96;48.27;98502.81;5131948;27;20557;-89
2022/05/03 09:19:41;;;;;;;23.98;14.40;;;;;;;20.33;48.54;98510.16;5129782;27;20036;-89
2022/05/03 09:25:02;;;;;;;22.95;12.35;;;;;;;20.56;45.82;98497.69;5048440;27;20381;-93
2022/05/03 09:27:28;;;;;;;21.92;12.85;;;;;;;20.70;45.91;98509.25;5048035;28;20048;-88
2022/05/03 09:30:05;;;;;;;23.45;13.00;;;;;;;20.06;46.81;98521.91;5047706;28;20041;-91
2022/05/03 09:32:38;;;;;;;20.42;11.98;;;;;;;20.25;46.65;98514.25;5046829;28;20052;-89
2022/05/03 09:35:05;;;;;;;22.23;12.60;;;;;;;20.56;47.95;98512.09;5046961;28;20064;-88
2022/05/03 09:37:40;;;;;;;18.20;12.10;;;;;;;20.23;44.77;98527.03;5046606;28;20048;-89
2022/05/03 09:40:09;;;;;;;21.80;13.40;;;;;;;20.25;45.50;98519.66;5047617;28;20041;-88
2022/05/03 09:42:36;;;;;;;21.10;13.18;;;;;;;19.69;48.11;98510.94;5046117;28;20398;-89
2022/05/03 09:45:05;;;;;;;22.63;13.77;;;;;;;19.87;46.96;98519.66;5046987;28;20095;-91
2022/05/03 09:47:33;;;;;;;22.00;12.57;;;;;;;20.22;47.25;98509.06;5046974;28;20128;-88
2022/05/03 09:49:59;;;;;;;;;;;;;;;20.64;44.07;98503.44;5047276;28;20048;-89
2022/05/03 09:52:27;;;;;;;20.92;13.15;;;;;;;19.89;45.16;98493.44;5046360;28;20357;-88
2022/05/03 09:54:59;;;;;;;20.77;13.00;;;;;;;20.14;47.09;98513.28;5046194;28;20064;-90
2022/05/03 09:57:27;;;;;;;20.30;13.20;;;;;;;19.34;46.76;98481.84;5046848;28;20045;-91
2022/05/03 09:59:55;;;;;;;20.75;12.55;;;;;;;19.84;46.16;98499.16;5047030;28;20042;-90
2022/05/03 10:02:23;;;;;;;20.85;13.52;;;;;;;19.99;46.65;98497.19;5045550;28;20144;-90
2022/05/03 10:04:51;;;;;;;20.17;13.25;;;;;;;20.48;45.69;98491.00;5046788;28;20061;-91
2022/05/03 10:07:17;;;;;;;24.30;13.50;;;;;;;20.65;44.79;98502.47;5046882;28;20768;-88
2022/05/03 10:09:45;;;;;;;24.60;13.88;;;;;;;21.16;44.55;98487.91;5047026;28;20060;-90
2022/05/03 10:12:12;;;;;;;27.63;13.48;;;;;;;21.39;43.65;98484.34;5046321;28;20037;-89
2022/05/03 10:14:39;;;;;;;19.80;12.75;;;;;;;;;;5046917;28;20842;-89
2022/05/03 10:20:36;;;;;;;24.10;13.05;;;;;;;20.66;44.20;98474.47;5112998;27;20382;-91
2022/05/03 10:22:53;;;;;;;22.27;13.15;;;;;;;20.59;43.91;98479.47;5117733;28;20428;-91
2022/05/03 10:25:27;;;;;;;20.48;13.30;;;;;;;21.07;43.43;98457.88;5115340;28;20139;-90
2022/05/03 10:27:55;;;;;;;21.95;12.95;;;;;;;21.14;42.79;98460.97;5111482;28;20062;-90
2022/05/03 10:30:23;;;;;;;22.08;12.93;;;;;;;21.42;42.16;98473.31;5120068;28;20055;-90
2022/05/03 10:33:23;;;;;;;21.25;14.07;;;;;;;20.62;42.91;98454.06;5116157;28;20044;-89
2022/05/03 10:35:51;;;;;;;19.30;12.88;;;;;;;21.09;41.35;98458.63;5110271;28;20048;-92
2022/05/03 10:38:35;;;;;;;19.38;12.20;;;;;;;21.66;38.93;98446.19;5120509;28;20048;-89
2022/05/03 10:41:01;;;;;;;18.98;12.35;;;;;;;22.21;39.31;98449.13;5117168;28;20040;-90
2022/05/03 10:43:27;;;;;;;22.58;12.77;;;;;;;22.24;38.85;98437.22;5116968;27;20043;-91
2022/05/03 10:45:55;;;;;;;19.10;12.02;;;;;;;21.21;39.78;98454.16;5120444;28;20046;-91
2022/05/03 10:48:26;;;;;;;19.08;11.68;;;;;;;21.40;37.58;98450.03;5115116;28;20106;-90
2022/05/03 10:50:55;;;;;;;17.60;10.82;;;;;;;21.57;37.13;98437.94;5107747;28;20044;-92
2022/05/03 10:53:27;;;;;;;18.98;11.98;;;;;;;21.05;39.57;98453.56;5117002;28;20090;-90
2022/05/03 10:56:20;;;;;;;19.27;12.27;;;;;;;20.30;40.88;98458.09;5117642;28;20043;-89
2022/05/03 10:59:12;;;;;;;18.70;12.23;;;;;;;20.40;41.47;98449.31;5112252;28;20084;-90
2022/05/03 11:02:06;;;;;;;17.45;11.77;;;;;;;20.95;40.18;98444.41;5111578;28;20039;-89
2022/05/03 11:04:35;;;;;;;18.48;11.48;;;;;;;20.93;41.20;98439.16;5109126;28;20044;-89
2022/05/03 11:07:03;;;;;;;21.42;11.85;;;;;;;21.15;39.64;98427.56;5112226;28;20043;-90
2022/05/03 11:09:30;;;;;;;19.40;11.40;;;;;;;21.64;39.61;98434.66;5117658;28;20070;-91
2022/05/03 11:11:59;;;;;;;17.40;11.70;;;;;;;21.60;38.33;98437.69;5116666;28;20048;-90
2022/05/03 11:14:43;;;;;;;;;;;;;;;20.96;39.05;98441.63;5112684;28;20037;-88
2022/05/03 11:17:09;;;;;;;17.35;11.13;;;;;;;21.14;38.70;98433.94;5112496;28;19919;-90
2022/05/03 11:19:37;;;;;;;17.65;10.80;;;;;;;21.61;39.33;98434.88;5117425;28;20505;-90
2022/05/03 11:22:10;;;;;;;17.70;11.85;;;;;;;21.47;37.16;98430.56;5112106;28;20050;-90
2022/05/03 11:24:40;;;;;;;17.23;10.82;;;;;;;21.26;37.63;98440.28;5115507;28;20112;-91
2022/05/03 11:27:11;;;;;;;18.35;11.55;;;;;;;21.26;36.81;98426.75;5116388;28;20123;-91
2022/05/03 11:29:41;;;;;;;15.57;10.93;;;;;;;21.20;37.28;98419.09;5107880;28;20113;-90
2022/05/03 11:32:08;;;;;;;16.40;11.10;;;;;;;21.64;37.73;98425.66;5095685;28;20059;-89
2022/05/03 11:34:34;;;;;;;15.68;10.93;;;;;;;22.05;37.23;98416.97;5102302;27;20687;-89
2022/05/03 11:37:02;;;;;;;14.88;10.98;;;;;;;21.64;35.89;98423.84;5098100;28;20105;-88
2022/05/03 11:39:30;;;;;;;15.02;11.07;;;;;;;21.16;37.17;98423.88;5096508;28;20154;-91
2022/05/03 11:41:57;;;;;;;15.93;10.20;;;;;;;21.18;37.43;98421.91;5103053;28;20036;-92
2022/05/03 11:44:23;;;;;;;14.70;10.38;;;;;;;20.80;37.13;98403.22;5098770;28;20516;-89
2022/05/03 11:46:49;;;;;;;16.55;10.68;;;;;;;21.37;36.80;98415.13;5096110;28;20042;-91
2022/05/03 11:49:16;;;;;;;16.98;10.10;;;;;;;21.86;35.09;98411.31;5100662;28;20093;-91
2022/05/03 11:57:45;;;;;;;14.27;10.10;;;;;;;22.62;32.03;98398.88;5122186;27;20378;-92
2022/05/03 12:00:13;;;;;;;17.25;9.48;;;;;;;22.85;32.53;98398.81;5117153;27;20065;-90
2022/05/03 12:02:41;;;;;;;;;;;;;;;23.24;31.40;98399.19;5127901;27;20039;-89
2022/05/03 12:05:16;;;;;;;14.52;10.05;;;;;;;23.53;32.43;98381.28;5124493;28;19926;-91
2022/05/03 12:07:44;;;;;;;17.95;10.93;;;;;;;23.96;31.80;98385.69;5123889;27;20043;-91